Time;durP1;ratioP1;P1;durP2;ratioP2;P2;SDS_P1;SDS_P2;PMS_P1;PMS_P2;Temp;Humidity;BMP_temperature;BMP_pressure;BME280_temperature;BME280_humidity;BME280_pressure;Samples;Min_cycle;Max_cycle;Signal;HPM_P1;HPM_P2
2023/08/16 00:00:05;;;;;;;2.70;1.30;;;;;;;;;;5092602;28;20164;-47
2023/08/16 00:02:31;;;;;;;3.33;1.33;;;;;;;;;;5092147;28;20172;-46
2023/08/16 00:04:57;;;;;;;5.73;2.00;;;;;;;;;;5091829;28;20467;-52
2023/08/16 00:07:23;;;;;;;2.50;1.17;;;;;;;;;;5092840;28;20179;-49
2023/08/16 00:09:51;;;;;;;3.17;1.70;;;;;;;;;;5092230;28;20203;-47
2023/08/16 00:12:17;;;;;;;4.70;1.50;;;;;;;;;;5093045;28;20184;-48
2023/08/16 00:14:43;;;;;;;3.27;1.40;;;;;;;;;;5093445;28;20180;-51
2023/08/16 00:17:09;;;;;;;3.70;1.60;;;;;;;;;;5095006;28;20176;-47
2023/08/16 00:19:37;;;;;;;3.63;1.90;;;;;;;;;;5095550;28;20206;-46
2023/08/16 00:22:03;;;;;;;6.53;1.77;;;;;;;;;;5093669;28;20207;-46
2023/08/16 00:24:29;;;;;;;3.73;1.80;;;;;;;;;;5093468;28;20315;-48
2023/08/16 00:26:55;;;;;;;3.97;1.90;;;;;;;;;;5092172;28;20187;-47
2023/08/16 00:29:21;;;;;;;5.10;1.90;;;;;;;;;;5091819;28;20284;-48
2023/08/16 00:31:47;;;;;;;4.60;2.20;;;;;;;;;;5091586;28;20256;-54
2023/08/16 00:34:13;;;;;;;4.07;1.63;;;;;;;;;;5092923;28;20369;-50
2023/08/16 00:36:39;;;;;;;1.80;1.27;;;;;;;;;;5092019;28;20184;-49
2023/08/16 00:39:05;;;;;;;3.37;1.70;;;;;;;;;;5093480;28;20552;-47
2023/08/16 00:41:31;;;;;;;3.57;1.40;;;;;;;;;;5093519;28;20187;-47
2023/08/16 00:43:58;;;;;;;3.37;1.60;;;;;;;;;;5092562;28;20211;-46
2023/08/16 00:46:24;;;;;;;6.63;2.17;;;;;;;;;;5092347;28;20171;-47
2023/08/16 00:48:50;;;;;;;3.00;1.50;;;;;;;;;;5092499;28;20168;-46
2023/08/16 00:51:16;;;;;;;3.53;1.63;;;;;;;;;;5091967;28;20168;-46
2023/08/16 00:53:43;;;;;;;4.90;2.20;;;;;;;;;;5093764;28;20172;-50
2023/08/16 00:56:09;;;;;;;5.73;1.77;;;;;;;;;;5093153;28;20231;-47
2023/08/16 00:58:35;;;;;;;1.90;1.50;;;;;;;;;;5094191;28;20175;-52
2023/08/16 01:01:01;;;;;;;5.63;2.07;;;;;;;;;;5093473;28;20168;-49
2023/08/16 01:03:27;;;;;;;3.27;1.70;;;;;;;;;;5092835;28;20176;-49
2023/08/16 01:05:53;;;;;;;4.03;1.77;;;;;;;;;;5091820;28;20243;-47
2023/08/16 01:08:19;;;;;;;5.10;1.80;;;;;;;;;;5093376;28;20200;-46
2023/08/16 01:11:04;;;;;;;3.07;1.60;;;;;;;;;;5092044;28;20203;-47
2023/08/16 01:13:33;;;;;;;4.07;1.70;;;;;;;;;;5092136;28;20184;-46
2023/08/16 01:15:59;;;;;;;4.57;1.87;;;;;;;;;;5091496;28;20172;-48
2023/08/16 01:18:26;;;;;;;3.70;1.87;;;;;;;;;;5092993;28;20176;-51
2023/08/16 01:20:53;;;;;;;7.87;1.90;;;;;;;;;;5092950;28;20183;-50
2023/08/16 01:23:19;;;;;;;2.97;1.40;;;;;;;;;;5092739;28;20580;-47
2023/08/16 01:25:50;;;;;;;1.90;1.50;;;;;;;;;;5093020;28;20615;-47
2023/08/16 01:28:17;;;;;;;3.57;2.00;;;;;;;;;;5092006;28;20321;-51
2023/08/16 01:30:45;;;;;;;3.73;1.30;;;;;;;;;;5092391;28;20172;-48
2023/08/16 01:33:12;;;;;;;2.80;1.57;;;;;;;;;;5091464;28;20574;-47
2023/08/16 01:35:38;;;;;;;4.73;1.83;;;;;;;;;;5092236;28;20179;-48
2023/08/16 01:38:05;;;;;;;3.67;1.67;;;;;;;;;;5091658;28;20178;-47
2023/08/16 01:40:35;;;;;;;5.07;1.77;;;;;;;;;;5092355;28;20182;-48
2023/08/16 01:43:02;;;;;;;2.40;1.53;;;;;;;;;;5093346;28;20269;-49
2023/08/16 01:45:28;;;;;;;3.07;1.90;;;;;;;;;;5094989;28;20288;-49
2023/08/16 01:47:55;;;;;;;2.93;1.80;;;;;;;;;;5098274;28;20313;-53
2023/08/16 01:50:22;;;;;;;6.27;2.43;;;;;;;;;;5097924;28;20528;-48
2023/08/16 01:52:48;;;;;;;7.73;1.50;;;;;;;;;;5098157;28;20164;-49
2023/08/16 01:55:14;;;;;;;4.57;1.67;;;;;;;;;;5098225;28;20172;-52
2023/08/16 01:57:40;;;;;;;6.03;2.03;;;;;;;;;;5097624;28;20180;-49
2023/08/16 02:00:09;;;;;;;5.07;2.10;;;;;;;;;;5098156;28;20176;-49
2023/08/16 02:02:37;;;;;;;2.97;1.90;;;;;;;;;;5098430;28;20202;-48
2023/08/16 02:05:03;;;;;;;4.87;2.03;;;;;;;;;;5097706;28;20218;-50
2023/08/16 02:07:29;;;;;;;3.83;1.53;;;;;;;;;;5097876;28;20360;-47
2023/08/16 02:09:55;;;;;;;3.17;1.57;;;;;;;;;;5097177;28;20199;-49
2023/08/16 02:12:21;;;;;;;5.57;2.17;;;;;;;;;;5095853;28;20235;-51
2023/08/16 02:14:47;;;;;;;6.27;2.47;;;;;;;;;;5096270;28;20184;-49
2023/08/16 02:17:13;;;;;;;5.40;1.90;;;;;;;;;;5095904;28;20187;-49
2023/08/16 02:19:41;;;;;;;3.63;1.80;;;;;;;;;;5096552;28;20184;-48
2023/08/16 02:22:07;;;;;;;3.40;1.97;;;;;;;;;;5093412;28;20183;-47
2023/08/16 02:24:33;;;;;;;3.23;1.40;;;;;;;;;;5095438;28;20260;-46
2023/08/16 02:26:59;;;;;;;4.93;1.70;;;;;;;;;;5095255;28;20171;-51
2023/08/16 02:29:25;;;;;;;4.27;1.67;;;;;;;;;;5094054;28;20232;-49
2023/08/16 02:31:51;;;;;;;4.13;1.90;;;;;;;;;;5094421;28;20649;-47
2023/08/16 02:34:17;;;;;;;8.90;2.37;;;;;;;;;;5094608;28;20203;-49
2023/08/16 02:36:43;;;;;;;6.83;2.00;;;;;;;;;;5095062;28;20226;-48
2023/08/16 02:39:09;;;;;;;5.53;1.60;;;;;;;;;;5096613;28;20548;-50
2023/08/16 02:41:35;;;;;;;4.67;2.13;;;;;;;;;;5095358;28;20552;-48
2023/08/16 02:44:01;;;;;;;5.17;1.80;;;;;;;;;;5095652;28;20212;-48
2023/08/16 02:46:27;;;;;;;6.53;2.30;;;;;;;;;;5096548;28;20525;-46
2023/08/16 02:48:53;;;;;;;4.43;1.73;;;;;;;;;;5096567;28;20168;-47
2023/08/16 02:51:19;;;;;;;4.97;1.77;;;;;;;;;;5096811;28;20236;-47
2023/08/16 02:53:45;;;;;;;3.40;1.90;;;;;;;;;;5096594;28;20179;-47
2023/08/16 02:56:11;;;;;;;4.90;1.70;;;;;;;;;;5096044;28;20302;-49
2023/08/16 02:58:38;;;;;;;2.97;1.90;;;;;;;;;;5096422;28;20279;-50
2023/08/16 03:01:04;;;;;;;6.63;2.10;;;;;;;;;;5096625;28;20368;-49
2023/08/16 03:03:30;;;;;;;3.43;1.80;;;;;;;;;;5094920;28;20176;-48
2023/08/16 03:05:56;;;;;;;3.63;1.67;;;;;;;;;;5094059;28;20533;-47
2023/08/16 03:08:22;;;;;;;5.67;1.93;;;;;;;;;;5094833;28;20743;-53
2023/08/16 03:10:48;;;;;;;4.10;1.83;;;;;;;;;;5092446;28;20275;-46
2023/08/16 03:13:14;;;;;;;3.90;1.67;;;;;;;;;;5092712;28;20278;-48
2023/08/16 03:15:40;;;;;;;5.03;2.43;;;;;;;;;;5094924;28;20363;-48
2023/08/16 03:18:06;;;;;;;4.07;1.80;;;;;;;;;;5097161;28;20168;-51
2023/08/16 03:20:33;;;;;;;4.80;1.90;;;;;;;;;;5095194;28;20180;-50
2023/08/16 03:22:59;;;;;;;6.57;2.00;;;;;;;;;;5095783;28;20199;-50
2023/08/16 03:25:25;;;;;;;9.03;2.30;;;;;;;;;;5095520;28;20204;-46
2023/08/16 03:27:51;;;;;;;8.50;2.63;;;;;;;;;;5095743;28;20257;-47
2023/08/16 03:30:17;;;;;;;8.17;2.10;;;;;;;;;;5095030;28;20184;-49
2023/08/16 03:32:43;;;;;;;6.07;2.50;;;;;;;;;;5094566;28;20564;-47
2023/08/16 03:35:09;;;;;;;4.50;2.13;;;;;;;;;;5095277;28;20183;-47
2023/08/16 03:37:35;;;;;;;6.43;2.33;;;;;;;;;;5095521;28;20176;-49
2023/08/16 03:40:01;;;;;;;6.53;2.60;;;;;;;;;;5094242;28;20175;-51
2023/08/16 03:42:27;;;;;;;9.67;2.63;;;;;;;;;;5094283;28;20552;-47
2023/08/16 03:44:53;;;;;;;5.27;2.67;;;;;;;;;;5092846;28;20211;-48
2023/08/16 03:47:19;;;;;;;5.40;2.73;;;;;;;;;;5094252;28;20169;-51
2023/08/16 03:49:45;;;;;;;7.87;2.80;;;;;;;;;;5094475;28;20601;-51
2023/08/16 03:52:11;;;;;;;3.53;2.30;;;;;;;;;;5093210;28;20195;-49
2023/08/16 03:54:37;;;;;;;7.33;2.70;;;;;;;;;;5093030;28;20471;-50
2023/08/16 03:57:03;;;;;;;7.67;2.60;;;;;;;;;;5092390;28;20172;-46
2023/08/16 03:59:29;;;;;;;7.70;2.73;;;;;;;;;;5092040;28;20180;-49
2023/08/16 04:01:56;;;;;;;4.17;2.60;;;;;;;;;;5092081;28;20187;-49
2023/08/16 04:04:22;;;;;;;7.33;2.77;;;;;;;;;;5091349;28;20211;-47
2023/08/16 04:06:48;;;;;;;7.10;2.93;;;;;;;;;;5091353;28;20164;-49
2023/08/16 04:09:14;;;;;;;9.40;2.97;;;;;;;;;;5092366;28;20173;-47
2023/08/16 04:11:40;;;;;;;9.67;3.47;;;;;;;;;;5089461;28;20229;-47
2023/08/16 04:14:06;;;;;;;5.53;2.53;;;;;;;;;;5090845;28;20244;-47
2023/08/16 04:16:32;;;;;;;7.07;2.13;;;;;;;;;;5091033;28;20179;-49
2023/08/16 04:18:58;;;;;;;6.03;2.73;;;;;;;;;;5090100;28;20328;-48
2023/08/16 04:21:24;;;;;;;13.23;2.97;;;;;;;;;;5089218;28;20175;-47
2023/08/16 04:23:50;;;;;;;10.73;2.90;;;;;;;;;;5090039;28;20200;-50
2023/08/16 04:26:16;;;;;;;6.63;2.77;;;;;;;;;;5089712;28;20211;-46
2023/08/16 04:28:42;;;;;;;7.30;3.17;;;;;;;;;;5089931;28;20216;-49
2023/08/16 04:31:08;;;;;;;7.50;3.00;;;;;;;;;;5090026;28;20187;-47
2023/08/16 04:33:34;;;;;;;7.00;3.20;;;;;;;;;;5091983;28;20232;-48
2023/08/16 04:36:00;;;;;;;8.43;3.23;;;;;;;;;;5090676;28;20164;-47
2023/08/16 04:38:26;;;;;;;7.80;3.37;;;;;;;;;;5091812;28;20164;-51
2023/08/16 04:40:52;;;;;;;8.33;3.67;;;;;;;;;;5091193;28;20176;-51
2023/08/16 04:43:19;;;;;;;5.23;3.20;;;;;;;;;;5092473;28;20183;-49
2023/08/16 04:45:46;;;;;;;4.83;2.83;;;;;;;;;;5091340;28;20202;-46
2023/08/16 04:48:12;;;;;;;7.37;3.50;;;;;;;;;;5091202;28;20519;-47
2023/08/16 04:50:38;;;;;;;7.60;3.43;;;;;;;;;;5090853;28;20557;-46
2023/08/16 04:53:04;;;;;;;10.53;3.47;;;;;;;;;;5091268;28;20168;-46
2023/08/16 04:55:30;;;;;;;8.90;4.03;;;;;;;;;;5090739;28;20203;-50
2023/08/16 04:57:56;;;;;;;9.33;3.50;;;;;;;;;;5089601;28;20424;-48
2023/08/16 05:00:23;;;;;;;8.20;3.93;;;;;;;;;;5089861;28;20172;-46
2023/08/16 05:02:49;;;;;;;9.17;3.90;;;;;;;;;;5090743;28;20172;-48
2023/08/16 05:05:15;;;;;;;10.83;4.87;;;;;;;;;;5091190;28;20227;-46
2023/08/16 05:07:41;;;;;;;10.97;4.90;;;;;;;;;;5090960;28;20618;-51
2023/08/16 05:10:07;;;;;;;5.17;3.53;;;;;;;;;;5090241;28;20180;-46
2023/08/16 05:12:33;;;;;;;6.90;3.20;;;;;;;;;;5092199;28;20172;-50
2023/08/16 05:14:59;;;;;;;8.87;3.90;;;;;;;;;;5092136;28;20175;-47
2023/08/16 05:17:25;;;;;;;12.30;5.57;;;;;;;;;;5092081;28;20203;-48
2023/08/16 05:19:51;;;;;;;11.07;4.93;;;;;;;;;;5092550;28;20473;-49
2023/08/16 05:22:19;;;;;;;8.57;4.23;;;;;;;;;;5096219;28;20175;-50
2023/08/16 05:24:45;;;;;;;9.30;4.50;;;;;;;;;;5095174;28;20208;-49
2023/08/16 05:27:14;;;;;;;9.90;4.60;;;;;;;;;;5094080;28;20182;-49
2023/08/16 05:29:40;;;;;;;7.97;4.50;;;;;;;;;;5093196;28;20409;-46
2023/08/16 05:32:06;;;;;;;9.60;5.13;;;;;;;;;;5094829;28;20169;-51
2023/08/16 05:34:33;;;;;;;9.50;4.67;;;;;;;;;;5092120;28;20204;-47
2023/08/16 05:36:59;;;;;;;9.33;5.07;;;;;;;;;;5092133;28;20259;-49
2023/08/16 05:39:25;;;;;;;8.23;4.20;;;;;;;;;;5090614;28;20529;-47
2023/08/16 05:41:51;;;;;;;10.37;4.50;;;;;;;;;;5091638;28;20180;-50
2023/08/16 05:44:17;;;;;;;11.40;4.60;;;;;;;;;;5092623;28;20276;-52
2023/08/16 05:46:43;;;;;;;11.60;4.80;;;;;;;;;;5091362;28;20179;-49
2023/08/16 05:49:09;;;;;;;8.97;4.60;;;;;;;;;;5092277;28;20298;-48
2023/08/16 05:51:35;;;;;;;9.17;4.33;;;;;;;;;;5092600;28;20175;-46
2023/08/16 05:54:04;;;;;;;6.40;4.20;;;;;;;;;;5093736;28;20172;-47
2023/08/16 05:56:31;;;;;;;7.13;4.20;;;;;;;;;;5094195;28;20408;-47
2023/08/16 05:58:57;;;;;;;9.37;4.83;;;;;;;;;;5093596;28;20169;-46
2023/08/16 06:01:23;;;;;;;8.40;3.80;;;;;;;;;;5094058;28;20178;-49
2023/08/16 06:03:49;;;;;;;9.97;4.37;;;;;;;;;;5091819;28;20328;-48
2023/08/16 06:06:15;;;;;;;6.07;3.73;;;;;;;;;;5090238;28;20457;-49
2023/08/16 06:08:41;;;;;;;16.07;4.90;;;;;;;;;;5090282;28;20168;-47
2023/08/16 06:11:08;;;;;;;8.10;3.70;;;;;;;;;;5089906;28;20408;-47
2023/08/16 06:13:34;;;;;;;8.37;4.13;;;;;;;;;;5092209;28;20233;-51
2023/08/16 06:16:00;;;;;;;10.77;3.23;;;;;;;;;;5091450;28;20168;-49
2023/08/16 06:18:26;;;;;;;7.37;3.37;;;;;;;;;;5091793;28;20194;-52
2023/08/16 06:20:52;;;;;;;12.90;3.53;;;;;;;;;;5093231;28;20156;-47
2023/08/16 06:23:18;;;;;;;9.50;3.13;;;;;;;;;;5092645;28;20176;-49
2023/08/16 06:25:44;;;;;;;8.57;3.00;;;;;;;;;;5092006;28;20203;-52
2023/08/16 06:28:10;;;;;;;6.70;2.67;;;;;;;;;;5092038;28;20224;-50
2023/08/16 06:30:36;;;;;;;7.80;2.50;;;;;;;;;;5089800;28;20463;-50
2023/08/16 06:33:03;;;;;;;6.53;2.87;;;;;;;;;;5090109;28;20571;-47
2023/08/16 06:35:29;;;;;;;5.23;2.07;;;;;;;;;;5087902;28;20376;-48
2023/08/16 06:37:57;;;;;;;7.50;2.80;;;;;;;;;;5088533;28;20264;-51
2023/08/16 06:40:23;;;;;;;9.77;3.17;;;;;;;;;;5088233;28;20191;-51
2023/08/16 06:42:49;;;;;;;7.17;2.53;;;;;;;;;;5088676;28;20168;-50
2023/08/16 06:45:15;;;;;;;5.97;2.13;;;;;;;;;;5088193;28;20195;-49
2023/08/16 06:47:42;;;;;;;7.43;2.27;;;;;;;;;;5088738;28;20160;-47
2023/08/16 06:50:08;;;;;;;7.17;2.53;;;;;;;;;;5088413;28;20168;-50
2023/08/16 06:52:35;;;;;;;6.77;3.13;;;;;;;;;;5088249;28;20175;-49
2023/08/16 06:55:00;;;;;;;5.43;1.97;;;;;;;;;;5087776;28;20237;-50
2023/08/16 06:57:26;;;;;;;7.50;2.07;;;;;;;;;;5087570;28;20176;-49
2023/08/16 06:59:52;;;;;;;4.43;1.50;;;;;;;;;;5088052;28;20531;-52
2023/08/16 07:02:20;;;;;;;2.37;1.53;;;;;;;;;;5089504;28;20176;-47
2023/08/16 07:04:46;;;;;;;6.43;1.93;;;;;;;;;;5088937;28;20227;-47
2023/08/16 07:07:13;;;;;;;5.47;2.13;;;;;;;;;;5090844;28;20192;-50
2023/08/16 07:09:39;;;;;;;7.53;2.07;;;;;;;;;;5092390;28;20264;-49
2023/08/16 07:12:05;;;;;;;3.33;1.60;;;;;;;;;;5092526;28;20172;-51
2023/08/16 07:14:31;;;;;;;2.97;1.60;;;;;;;;;;5092280;28;20614;-48
2023/08/16 07:16:57;;;;;;;5.30;1.70;;;;;;;;;;5091024;28;20183;-49
2023/08/16 07:19:23;;;;;;;5.00;1.30;;;;;;;;;;5091455;28;20466;-48
2023/08/16 07:21:49;;;;;;;5.90;1.87;;;;;;;;;;5086980;28;20179;-47
2023/08/16 07:24:15;;;;;;;3.53;1.40;;;;;;;;;;5088028;28;20436;-46
2023/08/16 07:26:41;;;;;;;3.20;1.60;;;;;;;;;;5086613;28;20179;-49
2023/08/16 07:29:07;;;;;;;4.67;1.50;;;;;;;;;;5086129;28;20252;-47
2023/08/16 07:31:33;;;;;;;4.07;1.73;;;;;;;;;;5086226;28;20199;-46
2023/08/16 07:33:59;;;;;;;7.27;1.93;;;;;;;;;;5085876;28;20175;-51
2023/08/16 07:36:27;;;;;;;5.87;1.80;;;;;;;;;;5087045;28;20262;-50
2023/08/16 07:38:53;;;;;;;5.80;2.03;;;;;;;;;;5085789;28;20183;-50
2023/08/16 07:41:20;;;;;;;5.03;1.30;;;;;;;;;;5087439;28;20532;-48
2023/08/16 07:43:46;;;;;;;4.23;1.83;;;;;;;;;;5087646;28;20544;-48
2023/08/16 07:46:12;;;;;;;4.80;1.53;;;;;;;;;;5089840;28;20532;-46
2023/08/16 07:48:38;;;;;;;7.20;2.00;;;;;;;;;;5090590;28;20230;-47
2023/08/16 07:51:04;;;;;;;10.07;1.77;;;;;;;;;;5090145;28;20199;-47
2023/08/16 07:53:31;;;;;;;3.10;1.30;;;;;;;;;;5089601;28;20229;-48
2023/08/16 07:55:57;;;;;;;6.23;1.50;;;;;;;;;;5088846;28;20222;-46
2023/08/16 07:58:24;;;;;;;3.97;1.50;;;;;;;;;;5089921;28;20182;-47
2023/08/16 08:00:54;;;;;;;5.10;1.57;;;;;;;;;;5088279;28;20168;-47
2023/08/16 08:03:21;;;;;;;4.90;2.10;;;;;;;;;;5088272;28;20168;-47
2023/08/16 08:05:47;;;;;;;5.17;1.67;;;;;;;;;;5089108;28;20554;-49
2023/08/16 08:08:14;;;;;;;5.00;2.00;;;;;;;;;;5089896;28;20546;-49
2023/08/16 08:10:46;;;;;;;4.47;1.50;;;;;;;;;;5089392;28;20168;-47
2023/08/16 08:13:12;;;;;;;5.40;1.53;;;;;;;;;;5088897;28;20172;-47
2023/08/16 08:15:38;;;;;;;4.70;1.40;;;;;;;;;;5087789;28;20415;-47
2023/08/16 08:18:04;;;;;;;4.63;1.83;;;;;;;;;;5088342;28;20567;-46
2023/08/16 08:20:31;;;;;;;8.40;1.30;;;;;;;;;;5088606;28;20176;-48
2023/08/16 08:22:56;;;;;;;3.13;1.30;;;;;;;;;;5088440;28;20239;-46
2023/08/16 08:25:24;;;;;;;5.70;1.63;;;;;;;;;;5084786;28;20215;-47
2023/08/16 08:27:50;;;;;;;3.60;1.77;;;;;;;;;;5084249;28;20241;-53
2023/08/16 08:30:18;;;;;;;5.37;1.50;;;;;;;;;;5085050;28;20172;-48
2023/08/16 08:32:44;;;;;;;4.37;1.53;;;;;;;;;;5084178;28;20171;-48
2023/08/16 08:35:10;;;;;;;5.83;1.63;;;;;;;;;;5084335;28;20178;-48
2023/08/16 08:37:36;;;;;;;4.40;1.87;;;;;;;;;;5085533;28;20556;-51
2023/08/16 08:40:04;;;;;;;4.50;1.30;;;;;;;;;;5087060;28;20179;-47
2023/08/16 08:42:30;;;;;;;4.63;1.60;;;;;;;;;;5088500;28;20183;-47
2023/08/16 08:44:57;;;;;;;4.10;1.40;;;;;;;;;;5086688;28;20264;-50
2023/08/16 08:47:24;;;;;;;3.67;1.20;;;;;;;;;;5085745;28;20442;-46
2023/08/16 08:49:50;;;;;;;3.83;1.53;;;;;;;;;;5086993;28;20253;-49
2023/08/16 08:52:16;;;;;;;2.27;1.33;;;;;;;;;;5084989;28;20266;-48
2023/08/16 08:54:42;;;;;;;4.80;1.27;;;;;;;;;;5083452;28;20299;-49
2023/08/16 08:57:09;;;;;;;7.47;2.23;;;;;;;;;;5084136;28;20298;-49
2023/08/16 08:59:39;;;;;;;3.80;1.20;;;;;;;;;;5085091;28;20176;-47
2023/08/16 09:02:05;;;;;;;4.00;1.47;;;;;;;;;;5085938;28;20180;-48
2023/08/16 09:04:33;;;;;;;2.23;1.47;;;;;;;;;;5086106;28;20212;-50
2023/08/16 09:07:03;;;;;;;5.93;1.67;;;;;;;;;;5087526;28;20540;-51
2023/08/16 09:09:29;;;;;;;2.33;1.07;;;;;;;;;;5090593;28;20168;-47
2023/08/16 09:11:56;;;;;;;3.67;1.83;;;;;;;;;;5090068;28;20172;-47
2023/08/16 09:14:22;;;;;;;3.57;1.30;;;;;;;;;;5088458;28;20176;-46
2023/08/16 09:16:48;;;;;;;4.60;1.30;;;;;;;;;;5087579;28;20275;-49
2023/08/16 09:19:15;;;;;;;4.70;1.53;;;;;;;;;;5086384;28;20260;-50
2023/08/16 09:21:41;;;;;;;3.30;1.27;;;;;;;;;;5083438;28;20186;-47
2023/08/16 09:24:07;;;;;;;5.60;1.43;;;;;;;;;;5079226;28;20231;-49
2023/08/16 09:26:37;;;;;;;6.00;1.47;;;;;;;;;;5077931;28;20511;-48
2023/08/16 09:29:03;;;;;;;6.07;1.87;;;;;;;;;;5076831;28;20220;-48
2023/08/16 09:31:30;;;;;;;3.23;1.40;;;;;;;;;;5076176;28;20176;-47
2023/08/16 09:34:00;;;;;;;2.30;1.50;;;;;;;;;;5077423;28;20475;-48
2023/08/16 09:36:30;;;;;;;4.27;1.40;;;;;;;;;;5079733;28;20169;-47
2023/08/16 09:39:11;;;;;;;3.27;1.33;;;;;;;;;;5081634;28;20258;-47
2023/08/16 09:41:56;;;;;;;2.77;1.40;;;;;;;;;;5080663;28;20203;-48
2023/08/16 09:44:26;;;;;;;5.77;1.50;;;;;;;;;;5085248;28;20230;-51
2023/08/16 09:46:52;;;;;;;10.03;1.57;;;;;;;;;;5083715;28;20533;-53
2023/08/16 09:49:25;;;;;;;5.57;2.13;;;;;;;;;;5068043;28;20168;-49
2023/08/16 09:51:51;;;;;;;3.83;1.50;;;;;;;;;;5085523;28;20172;-48
2023/08/16 09:54:17;;;;;;;4.17;1.63;;;;;;;;;;5085229;28;20204;-46
2023/08/16 09:56:44;;;;;;;3.73;1.40;;;;;;;;;;5084968;28;20239;-49
2023/08/16 09:59:11;;;;;;;5.17;1.83;;;;;;;;;;5085302;28;20180;-48
2023/08/16 10:01:37;;;;;;;4.77;1.40;;;;;;;;;;5085033;28;20292;-48
2023/08/16 10:04:03;;;;;;;3.23;1.40;;;;;;;;;;5085474;28;20494;-49
2023/08/16 10:06:33;;;;;;;6.37;1.70;;;;;;;;;;5088406;28;20498;-47
2023/08/16 10:08:59;;;;;;;4.57;1.50;;;;;;;;;;5086822;28;20349;-47
2023/08/16 10:11:26;;;;;;;5.00;1.80;;;;;;;;;;5086879;28;20238;-49
2023/08/16 10:13:52;;;;;;;3.33;1.63;;;;;;;;;;5086223;28;20168;-48
2023/08/16 10:16:21;;;;;;;3.47;1.30;;;;;;;;;;5087279;28;20281;-48
2023/08/16 10:18:48;;;;;;;7.97;1.70;;;;;;;;;;5087575;28;20511;-48
2023/08/16 10:21:18;;;;;;;3.03;1.43;;;;;;;;;;5086176;28;20386;-47
2023/08/16 10:23:44;;;;;;;3.67;1.70;;;;;;;;;;5087919;28;20302;-47
2023/08/16 10:26:15;;;;;;;3.30;1.17;;;;;;;;;;5088620;28;20180;-47
2023/08/16 10:28:47;;;;;;;3.37;1.73;;;;;;;;;;5090265;28;20239;-48
2023/08/16 10:31:14;;;;;;;2.83;1.37;;;;;;;;;;5089179;28;20490;-54
2023/08/16 10:33:44;;;;;;;5.80;1.57;;;;;;;;;;5088260;28;20230;-47
2023/08/16 10:36:10;;;;;;;3.93;2.00;;;;;;;;;;5089382;28;20395;-50
2023/08/16 10:38:41;;;;;;;5.93;1.83;;;;;;;;;;5088921;28;20257;-49
2023/08/16 10:41:14;;;;;;;3.63;1.33;;;;;;;;;;5087574;28;20420;-48
2023/08/16 10:43:46;;;;;;;2.83;1.43;;;;;;;;;;5085784;28;20500;-47
2023/08/16 10:46:12;;;;;;;3.33;1.60;;;;;;;;;;5085635;28;20164;-48
2023/08/16 10:48:39;;;;;;;3.40;1.57;;;;;;;;;;5084066;28;20298;-48
2023/08/16 10:51:06;;;;;;;6.23;1.63;;;;;;;;;;5085486;28;20171;-47
2023/08/16 10:53:33;;;;;;;7.80;1.80;;;;;;;;;;5082875;28;20370;-48
2023/08/16 10:56:04;;;;;;;3.30;1.27;;;;;;;;;;5082751;28;20468;-48
2023/08/16 10:58:30;;;;;;;9.03;1.73;;;;;;;;;;5085043;28;20244;-47
2023/08/16 11:00:59;;;;;;;2.50;1.20;;;;;;;;;;5083078;28;20176;-48
2023/08/16 11:03:34;;;;;;;4.50;2.17;;;;;;;;;;5084214;28;20202;-48
2023/08/16 11:06:06;;;;;;;3.93;1.70;;;;;;;;;;5082601;28;20440;-49
2023/08/16 11:08:32;;;;;;;3.17;1.60;;;;;;;;;;5083245;28;20559;-48
2023/08/16 11:10:59;;;;;;;3.57;1.30;;;;;;;;;;5084181;28;20384;-50
2023/08/16 11:13:28;;;;;;;2.07;1.20;;;;;;;;;;5085427;28;20271;-47
2023/08/16 11:15:54;;;;;;;3.40;1.30;;;;;;;;;;5085988;28;20408;-48
2023/08/16 11:18:30;;;;;;;3.27;1.23;;;;;;;;;;5086586;28;20225;-48
2023/08/16 11:20:59;;;;;;;5.47;1.60;;;;;;;;;;5088142;28;20384;-47
2023/08/16 11:23:30;;;;;;;5.97;1.60;;;;;;;;;;5089811;28;20224;-46
2023/08/16 11:26:00;;;;;;;4.07;1.85;;;;;;;;;;5087975;28;20199;-47
2023/08/16 11:28:27;;;;;;;3.08;1.85;;;;;;;;;;5087081;28;20431;-51
2023/08/16 11:30:56;;;;;;;5.43;1.20;;;;;;;;;;5088368;28;20458;-47
2023/08/16 11:33:23;;;;;;;3.72;2.95;;;;;;;;;;5089428;28;20198;-47
2023/08/16 11:35:49;;;;;;;2.13;1.60;;;;;;;;;;5087656;28;20358;-48
2023/08/16 11:38:15;;;;;;;2.10;1.20;;;;;;;;;;5088224;28;20514;-48
2023/08/16 11:40:46;;;;;;;2.42;1.10;;;;;;;;;;5088216;28;20735;-53
2023/08/16 11:43:12;;;;;;;2.90;1.05;;;;;;;;;;5089294;28;20439;-51
2023/08/16 11:45:38;;;;;;;3.33;1.23;;;;;;;;;;5088911;28;20238;-52
2023/08/16 11:48:04;;;;;;;1.70;1.05;;;;;;;;;;5087742;28;20182;-52
2023/08/16 11:50:33;;;;;;;2.33;1.05;;;;;;;;;;5087368;28;20179;-50
2023/08/16 11:53:00;;;;;;;4.75;1.65;;;;;;;;;;5088075;28;20566;-50
2023/08/16 11:55:29;;;;;;;4.93;1.70;;;;;;;;;;5083321;28;20168;-53
2023/08/16 11:57:55;;;;;;;3.03;1.30;;;;;;;;;;5086358;28;20290;-47
2023/08/16 12:00:29;;;;;;;4.32;1.65;;;;;;;;;;5085530;28;20180;-50
2023/08/16 12:02:56;;;;;;;3.25;1.42;;;;;;;;;;5087072;28;20249;-47
2023/08/16 12:05:22;;;;;;;3.28;1.55;;;;;;;;;;5085190;28;20275;-55
2023/08/16 12:07:51;;;;;;;5.10;1.90;;;;;;;;;;5084921;28;20344;-49
2023/08/16 12:10:25;;;;;;;2.72;1.45;;;;;;;;;;5084185;28;20171;-51
2023/08/16 12:12:52;;;;;;;3.50;1.40;;;;;;;;;;5084179;28;20207;-48
2023/08/16 12:15:26;;;;;;;2.50;1.48;;;;;;;;;;5084367;28;20301;-49
2023/08/16 12:17:52;;;;;;;4.95;1.90;;;;;;;;;;5083910;28;20183;-48
2023/08/16 12:20:19;;;;;;;2.85;1.88;;;;;;;;;;5085152;28;20179;-50
2023/08/16 12:22:46;;;;;;;3.22;2.22;;;;;;;;;;5083776;28;20422;-49
2023/08/16 12:25:12;;;;;;;2.05;1.60;;;;;;;;;;5073212;28;20200;-51
2023/08/16 12:27:39;;;;;;;1.98;1.65;;;;;;;;;;5055524;28;20180;-50
2023/08/16 12:30:06;;;;;;;2.75;1.60;;;;;;;;;;5059270;28;20225;-47
2023/08/16 12:32:33;;;;;;;6.18;1.45;;;;;;;;;;5066037;28;20322;-52
2023/08/16 12:34:59;;;;;;;1.85;1.63;;;;;;;;;;5057835;28;20189;-50
2023/08/16 12:37:25;;;;;;;2.67;1.60;;;;;;;;;;5051455;28;20476;-50
2023/08/16 12:39:51;;;;;;;2.42;1.42;;;;;;;;;;5049972;28;20188;-48
2023/08/16 12:42:17;;;;;;;1.60;1.50;;;;;;;;;;5060694;28;20506;-49
2023/08/16 12:44:43;;;;;;;5.55;1.55;;;;;;;;;;5060208;28;20204;-47
2023/08/16 12:47:09;;;;;;;4.88;1.83;;;;;;;;;;5059640;28;20161;-50
2023/08/16 12:49:35;;;;;;;2.72;1.80;;;;;;;;;;5062307;28;20172;-48
2023/08/16 12:52:01;;;;;;;3.17;1.90;;;;;;;;;;5062476;28;20328;-51
2023/08/16 12:54:27;;;;;;;2.53;1.67;;;;;;;;;;5070956;28;20172;-52
2023/08/16 12:56:53;;;;;;;2.10;1.65;;;;;;;;;;5071351;28;20209;-49
2023/08/16 12:59:19;;;;;;;3.55;2.15;;;;;;;;;;5072049;28;20692;-49
2023/08/16 13:01:47;;;;;;;4.65;3.10;;;;;;;;;;5064957;28;20200;-49
2023/08/16 13:04:13;;;;;;;2.55;1.52;;;;;;;;;;5071783;28;20192;-51
2023/08/16 13:06:39;;;;;;;2.08;1.63;;;;;;;;;;5071267;28;20165;-49
2023/08/16 13:09:09;;;;;;;2.58;1.17;;;;;;;;;;5070412;28;20161;-48
2023/08/16 13:11:35;;;;;;;3.65;1.80;;;;;;;;;;5071218;28;20196;-51
2023/08/16 13:14:01;;;;;;;2.80;1.40;;;;;;;;;;5069139;28;20177;-48
2023/08/16 13:16:27;;;;;;;2.53;1.48;;;;;;;;;;5067461;28;20179;-47
2023/08/16 13:18:53;;;;;;;2.60;1.20;;;;;;;;;;5066242;28;20165;-48
2023/08/16 13:21:19;;;;;;;2.92;1.40;;;;;;;;;;5065268;28;20685;-49
2023/08/16 13:23:51;;;;;;;3.92;1.48;;;;;;;;;;5066626;28;20554;-47
2023/08/16 13:26:17;;;;;;;4.78;2.20;;;;;;;;;;5061153;28;20412;-48
2023/08/16 13:28:43;;;;;;;2.28;1.65;;;;;;;;;;5058731;28;20251;-47
2023/08/16 13:31:12;;;;;;;2.92;1.38;;;;;;;;;;5061031;28;20181;-47
2023/08/16 13:33:38;;;;;;;4.93;1.58;;;;;;;;;;5060460;28;20165;-49
2023/08/16 13:36:04;;;;;;;3.55;1.23;;;;;;;;;;5060493;28;20468;-49
2023/08/16 13:38:30;;;;;;;2.72;1.20;;;;;;;;;;5061118;28;20168;-48
2023/08/16 13:40:57;;;;;;;4.10;1.70;;;;;;;;;;5062430;28;20599;-47
2023/08/16 13:43:23;;;;;;;2.10;1.20;;;;;;;;;;5069762;28;20180;-49
2023/08/16 13:45:50;;;;;;;3.20;1.45;;;;;;;;;;5072857;28;20196;-47
2023/08/16 13:48:16;;;;;;;5.05;1.67;;;;;;;;;;5073229;28;20261;-52
2023/08/16 13:50:42;;;;;;;2.78;1.42;;;;;;;;;;5072831;28;20169;-47
2023/08/16 13:53:08;;;;;;;4.63;1.67;;;;;;;;;;5072966;28;20222;-50
2023/08/16 13:55:34;;;;;;;5.25;1.45;;;;;;;;;;5073538;28;20200;-50
2023/08/16 13:58:00;;;;;;;3.13;1.33;;;;;;;;;;5073337;28;20179;-49
2023/08/16 14:00:27;;;;;;;4.10;1.05;;;;;;;;;;5073090;28;20187;-49
2023/08/16 14:02:53;;;;;;;1.73;1.02;;;;;;;;;;5072906;28;20171;-49
2023/08/16 14:05:19;;;;;;;2.95;1.05;;;;;;;;;;5071975;28;20204;-49
2023/08/16 14:07:46;;;;;;;6.00;1.70;;;;;;;;;;5070419;28;20551;-52
2023/08/16 14:10:13;;;;;;;2.88;1.50;;;;;;;;;;5071279;28;20177;-47
2023/08/16 14:12:40;;;;;;;2.75;1.33;;;;;;;;;;5071961;28;20458;-48
2023/08/16 14:15:06;;;;;;;1.58;1.17;;;;;;;;;;5071516;28;20257;-49
2023/08/16 14:17:32;;;;;;;5.75;1.52;;;;;;;;;;5068503;28;20233;-47
2023/08/16 14:19:58;;;;;;;2.78;1.10;;;;;;;;;;5063053;28;20556;-47
2023/08/16 14:22:24;;;;;;;3.10;1.10;;;;;;;;;;5064195;28;20165;-47
2023/08/16 14:24:50;;;;;;;3.05;1.67;;;;;;;;;;5065855;28;20600;-48
2023/08/16 14:27:16;;;;;;;9.07;2.20;;;;;;;;;;5066117;28;20351;-47
2023/08/16 14:29:42;;;;;;;3.25;1.63;;;;;;;;;;5065038;28;20484;-47
2023/08/16 14:32:08;;;;;;;3.78;1.45;;;;;;;;;;5064588;28;20168;-47
2023/08/16 14:34:34;;;;;;;2.03;1.27;;;;;;;;;;5065047;28;20168;-49
2023/08/16 14:37:02;;;;;;;3.08;1.25;;;;;;;;;;5065057;28;20353;-47
2023/08/16 14:39:27;;;;;;;2.70;1.10;;;;;;;;;;5065235;28;20169;-47